x

Ne Bahamas - 350 Nm Ene Of Nassau, Bahamas (41047) Wave Buoy

10:50pm - Thu 26th Feb 2015 All times are UTC.

  • Sig Wave height 6.2ft
  • Swell Direction
  • Peak Period 6s
  • Average Period 6s
  • Wind
    13mph, 16mph gusts
  • Sea Temp 74°f
  • Air Temp 75°f
  • Sea Pressure 1017.3mb

More Historic Weather Station data

Upgrade to MSW Pro to gain access to the past 30 days of data for over 8000 Wavebouys and Weather Stations around the globe.

Join Pro

Comparision Forecast

View Surf forecast
   
Thu 02/26 10:50pm 6ft 6s 6s 13 16 mph 1017.3mb 74f 75f
9:50pm 6ft 6s 6s 16 20 mph 1016.1mb 74f 75f
8:50pm 6ft 11s 6s 20 22 mph 1015.3mb 74f 75f
7:50pm 6ft 6s 6s 18 22 mph 1015.5mb 74f 75f
6:50pm 6ft 6s 6s 18 22 mph 1015.6mb 74f 75f
5:50pm 6ft 11s 6s 18 22 mph 1015.8mb 74f 75f
4:50pm 6.5ft 6s 6s 20 25 mph 1016.2mb 74f 75f
3:50pm 6ft 6s 6s 22 27 mph 1016.1mb 74f 75f
2:50pm 5.5ft 5s 5s 20 27 mph 1016.9mb 74f 75f
1:50pm 6ft 10s 6s 20 27 mph 1016.8mb 74f 75f
12:50pm 6ft 11s 6s 18 22 mph 1016.6mb 74f 74f
11:50am 5.5ft 10s 6s 18 22 mph 1016mb 74f 74f
10:50am 6ft 10s 6s 20 25 mph 1015.3mb 74f 74f
9:50am 5.5ft 11s 6s 20 25 mph 1014.8mb 74f 74f
8:50am 5ft 10s 6s 22 25 mph 1014.3mb 74f 74f
7:50am 5ft 9s 6s 20 25 mph 1014.5mb 74f 74f
6:50am 6ft 10s 6s 18 22 mph 1015mb 74f 74f
5:50am 6ft 10s 7s 16 20 mph 1015.6mb 74f 74f
4:50am 5.5ft 10s 7s 16 18 mph 1016.1mb 74f 74f
3:50am 5.5ft 10s 7s 11 13 mph 1016.9mb 74f 74f
2:50am 5.5ft 11s 7s 13 16 mph 1016.7mb 74f 74f
1:50am 5.5ft 10s 7s 9 11 mph 1016.9mb 74f 74f
12:50am 6ft 11s 7s 7
mph
1017mb 74f 74f
Wed 02/25 11:50pm 5ft 11s 7s 7 9 mph 1016.7mb 74f 74f
10:50pm 6ft 11s 7s 9 11 mph 1016.4mb 74f 74f
9:50pm 6ft 10s 7s 9 11 mph 1016mb 74f 75f
8:50pm 7ft 10s 7s 9 11 mph 1015.9mb 74f 75f
7:50pm 6ft 11s 7s 11 13 mph 1015.9mb 74f 75f
6:50pm 7ft 9s 7s 11 13 mph 1016mb 74f 74f
5:50pm 6.5ft 10s 7s 11 13 mph 1016.3mb 74f 74f
4:50pm 7ft 11s 6s 11 13 mph 1016.5mb 74f 74f
3:50pm 7ft 10s 6s 11 16 mph 1016.6mb 74f 74f
2:50pm 7ft 11s 6s 13 18 mph 1016.3mb 74f 74f
1:50pm 7ft 11s 7s 16 20 mph 1016.3mb 74f 74f
12:50pm 7.5ft 11s 7s 16 18 mph 1015.6mb 74f 74f
11:50am 8ft 10s 7s 16 20 mph 1015mb 74f 74f
10:50am 7.5ft 11s 6s 18 22 mph 1014.1mb 74f 74f
9:50am 7.5ft 11s 7s 20 27 mph 1013.6mb 74f 74f
8:50am 7.5ft 11s 6s 20 22 mph 1013.2mb 74f 74f
7:50am 7.5ft 11s 7s 20 25 mph 1013.4mb 74f 74f
6:50am 8ft 11s 7s 20 25 mph 1013.8mb 74f 74f
5:50am 7.5ft 11s 7s 20 25 mph 1014.2mb 74f 74f
4:50am 7ft 11s 7s 20 25 mph 1014.7mb 74f 74f
3:50am 7.5ft 11s 8s 22 25 mph 1014.6mb 74f 74f
2:50am 8ft 11s 8s 18 22 mph 1015mb 74f 74f
1:50am 7ft 11s 8s 16 20 mph 1015.4mb 74f 74f
12:50am 5ft 11s 7s 16 18 mph 1015.4mb 74f 74f
Tue 02/24 11:50pm 5ft 11s 7s 13 16 mph 1015.8mb 74f 74f
10:50pm 5ft 11s 6s 16 18 mph 1015.4mb 74f 74f
9:50pm 5ft 10s 7s 16 18 mph 1015.3mb 74f 74f
8:50pm 5ft 10s 7s 11 16 mph 1015.1mb 74f 73f
7:50pm 5ft 11s 7s 11 13 mph 1015.3mb 75f 73f
6:50pm 5ft 11s 7s 9 13 mph 1015.5mb 74f 73f
5:50pm 5.5ft 11s 7s 4 7 mph 1016.3mb 75f 73f
4:50pm 5ft 10s 7s 4 7 mph 1017.2mb 74f 73f
3:50pm 5.5ft 11s 7s 4 9 mph 1017.9mb 74f 72f
2:50pm 5ft 11s 6s 11 13 mph 1018.2mb 74f 72f
1:50pm 5ft 11s 7s 11 13 mph 1018mb 74f 73f
12:50pm 5.5ft 11s 7s 11 13 mph 1017.4mb 74f 73f
11:50am 5.5ft 10s 7s 13 16 mph 1017.2mb 74f 73f
10:50am 5.5ft 11s 7s 13 18 mph 1016.6mb 74f 73f
9:50am 5.5ft 11s 7s 16 18 mph 1016.2mb 74f 73f
8:50am 5ft 11s 7s 13 18 mph 1016.7mb 74f 73f
7:50am 6ft 11s 8s 13 16 mph 1017mb 74f 73f
6:50am 5.5ft 11s 8s 13 18 mph 1017.4mb 74f 73f
5:50am 6ft 11s 8s 11 13 mph 1018.3mb 74f 73f
4:50am 5ft 10s 8s 11 13 mph 1018.7mb 74f 73f
3:50am 5.5ft 11s 8s 11
mph
1018.8mb 74f 73f
2:50am 5.5ft 11s 8s 9 11 mph 1019.2mb 74f 73f
1:50am 5.5ft 10s 8s 7 9 mph 1019.5mb 74f 73f
12:50am 6ft 11s 8s 4 7 mph 1019.5mb 74f 73f
Mon 02/23 11:50pm 6ft 10s 8s 7
mph
1019.3mb 74f 72f
10:50pm 6ft 11s 8s 4 7 mph 1019.5mb 75f 72f
9:50pm 6ft 11s 8s 4 7 mph 1019.7mb 75f 73f
8:50pm 6ft 11s 8s 4 7 mph 1019.3mb 75f 73f
7:50pm 6.5ft 9s 8s 4 7 mph 1019.5mb 74f 72f
6:50pm 6ft 10s 7s 4 7 mph 1020.4mb 74f 72f
5:50pm 5.5ft 11s 7s 4 7 mph 1021.2mb 74f 72f
4:50pm 6ft 10s 7s 4 7 mph 1021.8mb 74f 72f
3:50pm 6ft 10s 7s 4 7 mph 1022.7mb 74f 72f
2:50pm 6.5ft 10s 7s 4 7 mph 1023mb 73f 71f
1:50pm 6.5ft 11s 7s 7
mph
1023.2mb 73f 70f
12:50pm 6ft 10s 7s 11 13 mph 1023.1mb 73f 69f
11:50am 6ft 10s 6s 13 16 mph 1022.9mb 73f 69f
10:50am 6ft 9s 7s 20 25 mph 1022.3mb 73f 67f
9:50am 6.5ft 10s 7s 9 11 mph 1022.2mb 73f 72f
8:50am 6.5ft 10s 7s 11 13 mph 1022.2mb 73f 72f
7:50am 7ft 9s 7s 13 16 mph 1022.3mb 73f 72f
6:50am 6ft 10s 7s 13 18 mph 1022.8mb 73f 73f
5:50am 6ft 9s 6s 16 18 mph 1023.2mb 73f 73f
4:50am 6ft 9s 6s 13 18 mph 1023.7mb 73f 73f
3:50am 7ft 9s 7s 13 16 mph 1024.4mb 73f 73f
2:50am 6.5ft 9s 6s 13 18 mph 1024.6mb 73f 73f
1:50am 6ft 9s 6s 16 18 mph 1024.7mb 73f 72f
12:50am 7ft 10s 6s 18 20 mph 1024.3mb 72f 72f